sensor_id;sensor_type;location;lat;lon;timestamp;P1;durP1;ratioP1;P2;durP2;ratioP2
23676;SDS011;31493;49.058;12.190;2022-11-15T00:02:11;12.20;;;9.25;;
23676;SDS011;31493;49.058;12.190;2022-11-15T00:04:38;13.13;;;9.63;;
23676;SDS011;31493;49.058;12.190;2022-11-15T00:07:07;12.98;;;9.25;;
23676;SDS011;31493;49.058;12.190;2022-11-15T00:09:34;12.45;;;9.73;;
23676;SDS011;31493;49.058;12.190;2022-11-15T00:12:01;13.68;;;9.80;;
23676;SDS011;31493;49.058;12.190;2022-11-15T00:14:28;12.82;;;9.45;;
23676;SDS011;31493;49.058;12.190;2022-11-15T00:16:55;14.27;;;9.80;;
23676;SDS011;31493;49.058;12.190;2022-11-15T00:19:22;12.23;;;8.88;;
23676;SDS011;31493;49.058;12.190;2022-11-15T00:21:49;15.40;;;8.70;;
23676;SDS011;31493;49.058;12.190;2022-11-15T00:24:17;13.25;;;9.00;;
23676;SDS011;31493;49.058;12.190;2022-11-15T00:26:44;12.93;;;9.05;;
23676;SDS011;31493;49.058;12.190;2022-11-15T00:29:11;14.82;;;8.70;;
23676;SDS011;31493;49.058;12.190;2022-11-15T00:31:38;12.73;;;8.38;;
23676;SDS011;31493;49.058;12.190;2022-11-15T00:34:05;11.57;;;8.52;;
23676;SDS011;31493;49.058;12.190;2022-11-15T00:36:32;16.98;;;9.57;;
23676;SDS011;31493;49.058;12.190;2022-11-15T00:39:00;12.85;;;8.73;;
23676;SDS011;31493;49.058;12.190;2022-11-15T00:41:28;14.10;;;9.00;;
23676;SDS011;31493;49.058;12.190;2022-11-15T00:43:55;14.10;;;9.98;;
23676;SDS011;31493;49.058;12.190;2022-11-15T00:46:22;12.48;;;8.77;;
23676;SDS011;31493;49.058;12.190;2022-11-15T00:48:49;16.30;;;9.02;;
23676;SDS011;31493;49.058;12.190;2022-11-15T00:51:16;13.30;;;9.70;;
23676;SDS011;31493;49.058;12.190;2022-11-15T00:53:43;16.05;;;9.82;;
23676;SDS011;31493;49.058;12.190;2022-11-15T00:56:10;14.55;;;10.10;;
23676;SDS011;31493;49.058;12.190;2022-11-15T00:58:39;15.82;;;11.02;;
23676;SDS011;31493;49.058;12.190;2022-11-15T01:01:06;13.35;;;9.98;;
23676;SDS011;31493;49.058;12.190;2022-11-15T01:03:35;12.10;;;9.13;;
23676;SDS011;31493;49.058;12.190;2022-11-15T01:06:02;14.88;;;10.50;;
23676;SDS011;31493;49.058;12.190;2022-11-15T01:08:30;13.82;;;10.35;;
23676;SDS011;31493;49.058;12.190;2022-11-15T01:11:00;14.90;;;10.27;;
23676;SDS011;31493;49.058;12.190;2022-11-15T01:13:29;15.43;;;10.05;;
23676;SDS011;31493;49.058;12.190;2022-11-15T01:15:58;15.15;;;10.10;;
23676;SDS011;31493;49.058;12.190;2022-11-15T01:20:53;19.67;;;10.93;;
23676;SDS011;31493;49.058;12.190;2022-11-15T01:23:20;13.60;;;10.20;;
23676;SDS011;31493;49.058;12.190;2022-11-15T01:25:47;14.52;;;10.90;;
23676;SDS011;31493;49.058;12.190;2022-11-15T01:28:14;18.88;;;12.10;;
23676;SDS011;31493;49.058;12.190;2022-11-15T01:30:41;18.60;;;11.63;;
23676;SDS011;31493;49.058;12.190;2022-11-15T01:33:09;17.73;;;12.45;;
23676;SDS011;31493;49.058;12.190;2022-11-15T01:35:38;20.08;;;12.98;;
23676;SDS011;31493;49.058;12.190;2022-11-15T01:38:05;17.90;;;12.35;;
23676;SDS011;31493;49.058;12.190;2022-11-15T01:40:32;16.08;;;11.45;;
23676;SDS011;31493;49.058;12.190;2022-11-15T01:42:59;15.13;;;10.88;;
23676;SDS011;31493;49.058;12.190;2022-11-15T01:45:26;16.67;;;11.30;;
23676;SDS011;31493;49.058;12.190;2022-11-15T01:47:53;15.68;;;11.00;;
23676;SDS011;31493;49.058;12.190;2022-11-15T01:50:23;15.57;;;11.13;;
23676;SDS011;31493;49.058;12.190;2022-11-15T01:52:54;16.80;;;10.98;;
23676;SDS011;31493;49.058;12.190;2022-11-15T01:55:22;18.20;;;11.20;;
23676;SDS011;31493;49.058;12.190;2022-11-15T01:57:53;16.17;;;11.25;;
23676;SDS011;31493;49.058;12.190;2022-11-15T02:00:23;16.38;;;11.27;;
23676;SDS011;31493;49.058;12.190;2022-11-15T02:02:50;18.13;;;11.10;;
23676;SDS011;31493;49.058;12.190;2022-11-15T02:05:17;18.75;;;11.70;;
23676;SDS011;31493;49.058;12.190;2022-11-15T02:07:46;15.73;;;10.90;;
23676;SDS011;31493;49.058;12.190;2022-11-15T02:10:17;17.70;;;12.32;;
23676;SDS011;31493;49.058;12.190;2022-11-15T02:12:46;15.35;;;11.43;;
23676;SDS011;31493;49.058;12.190;2022-11-15T02:15:14;19.93;;;11.10;;
23676;SDS011;31493;49.058;12.190;2022-11-15T02:17:48;15.05;;;11.65;;
23676;SDS011;31493;49.058;12.190;2022-11-15T02:20:30;19.80;;;11.77;;
23676;SDS011;31493;49.058;12.190;2022-11-15T02:23:21;16.40;;;10.90;;
23676;SDS011;31493;49.058;12.190;2022-11-15T02:26:07;16.95;;;10.55;;
23676;SDS011;31493;49.058;12.190;2022-11-15T02:28:49;14.63;;;10.65;;
23676;SDS011;31493;49.058;12.190;2022-11-15T02:31:26;16.88;;;11.13;;
23676;SDS011;31493;49.058;12.190;2022-11-15T02:33:59;16.67;;;10.98;;
23676;SDS011;31493;49.058;12.190;2022-11-15T02:36:36;15.13;;;11.20;;
23676;SDS011;31493;49.058;12.190;2022-11-15T02:39:10;16.13;;;10.40;;
23676;SDS011;31493;49.058;12.190;2022-11-15T02:41:48;16.98;;;10.52;;
23676;SDS011;31493;49.058;12.190;2022-11-15T02:44:21;16.30;;;11.15;;
23676;SDS011;31493;49.058;12.190;2022-11-15T02:46:54;15.80;;;10.88;;
23676;SDS011;31493;49.058;12.190;2022-11-15T02:49:39;15.55;;;10.27;;
23676;SDS011;31493;49.058;12.190;2022-11-15T02:52:14;16.65;;;11.15;;
23676;SDS011;31493;49.058;12.190;2022-11-15T02:54:42;15.95;;;10.52;;
23676;SDS011;31493;49.058;12.190;2022-11-15T02:57:12;16.90;;;11.23;;
23676;SDS011;31493;49.058;12.190;2022-11-15T02:59:52;15.25;;;10.70;;
23676;SDS011;31493;49.058;12.190;2022-11-15T03:02:56;16.58;;;11.20;;
23676;SDS011;31493;49.058;12.190;2022-11-15T03:05:35;15.88;;;10.90;;
23676;SDS011;31493;49.058;12.190;2022-11-15T03:08:09;14.82;;;10.65;;
23676;SDS011;31493;49.058;12.190;2022-11-15T03:10:45;15.88;;;10.50;;
23676;SDS011;31493;49.058;12.190;2022-11-15T03:13:24;18.58;;;10.90;;
23676;SDS011;31493;49.058;12.190;2022-11-15T03:15:56;16.65;;;11.32;;
23676;SDS011;31493;49.058;12.190;2022-11-15T03:18:31;15.70;;;11.30;;
23676;SDS011;31493;49.058;12.190;2022-11-15T03:21:00;16.98;;;11.18;;
23676;SDS011;31493;49.058;12.190;2022-11-15T03:23:30;16.23;;;11.15;;
23676;SDS011;31493;49.058;12.190;2022-11-15T03:25:59;17.35;;;11.27;;
23676;SDS011;31493;49.058;12.190;2022-11-15T03:28:28;16.73;;;11.60;;
23676;SDS011;31493;49.058;12.190;2022-11-15T03:31:00;17.33;;;12.20;;
23676;SDS011;31493;49.058;12.190;2022-11-15T03:33:51;19.65;;;12.43;;
23676;SDS011;31493;49.058;12.190;2022-11-15T03:36:21;23.83;;;12.73;;
23676;SDS011;31493;49.058;12.190;2022-11-15T03:41:21;19.05;;;12.40;;
23676;SDS011;31493;49.058;12.190;2022-11-15T03:43:55;16.50;;;10.30;;
23676;SDS011;31493;49.058;12.190;2022-11-15T03:46:27;16.73;;;11.32;;
23676;SDS011;31493;49.058;12.190;2022-11-15T03:49:04;18.08;;;11.27;;
23676;SDS011;31493;49.058;12.190;2022-11-15T03:51:34;15.60;;;10.52;;
23676;SDS011;31493;49.058;12.190;2022-11-15T03:54:02;16.33;;;11.30;;
23676;SDS011;31493;49.058;12.190;2022-11-15T03:56:30;16.92;;;10.55;;
23676;SDS011;31493;49.058;12.190;2022-11-15T03:58:57;14.55;;;11.20;;
23676;SDS011;31493;49.058;12.190;2022-11-15T04:01:24;20.02;;;11.05;;
23676;SDS011;31493;49.058;12.190;2022-11-15T04:03:51;15.82;;;10.75;;
23676;SDS011;31493;49.058;12.190;2022-11-15T04:06:19;17.90;;;11.65;;
23676;SDS011;31493;49.058;12.190;2022-11-15T04:08:46;16.15;;;11.32;;
23676;SDS011;31493;49.058;12.190;2022-11-15T04:11:13;18.98;;;11.00;;
23676;SDS011;31493;49.058;12.190;2022-11-15T04:13:40;18.58;;;12.23;;
23676;SDS011;31493;49.058;12.190;2022-11-15T04:16:07;15.98;;;11.70;;
23676;SDS011;31493;49.058;12.190;2022-11-15T04:18:34;16.33;;;11.50;;
23676;SDS011;31493;49.058;12.190;2022-11-15T04:21:01;15.52;;;11.05;;
23676;SDS011;31493;49.058;12.190;2022-11-15T04:23:47;18.95;;;11.43;;
23676;SDS011;31493;49.058;12.190;2022-11-15T04:26:46;19.23;;;11.32;;
23676;SDS011;31493;49.058;12.190;2022-11-15T04:29:13;19.13;;;10.98;;
23676;SDS011;31493;49.058;12.190;2022-11-15T04:31:57;15.02;;;11.10;;
23676;SDS011;31493;49.058;12.190;2022-11-15T04:34:24;17.55;;;10.82;;
23676;SDS011;31493;49.058;12.190;2022-11-15T04:36:51;15.63;;;10.77;;
23676;SDS011;31493;49.058;12.190;2022-11-15T04:39:37;18.98;;;11.20;;
23676;SDS011;31493;49.058;12.190;2022-11-15T04:42:05;17.30;;;10.88;;
23676;SDS011;31493;49.058;12.190;2022-11-15T04:44:32;13.77;;;9.80;;
23676;SDS011;31493;49.058;12.190;2022-11-15T04:46:59;15.27;;;10.70;;
23676;SDS011;31493;49.058;12.190;2022-11-15T04:49:27;15.85;;;10.80;;
23676;SDS011;31493;49.058;12.190;2022-11-15T04:51:54;14.88;;;10.20;;
23676;SDS011;31493;49.058;12.190;2022-11-15T04:54:21;15.43;;;10.60;;
23676;SDS011;31493;49.058;12.190;2022-11-15T04:56:49;15.15;;;10.18;;
23676;SDS011;31493;49.058;12.190;2022-11-15T04:59:16;13.95;;;10.43;;
23676;SDS011;31493;49.058;12.190;2022-11-15T05:01:43;17.67;;;9.98;;
23676;SDS011;31493;49.058;12.190;2022-11-15T05:04:10;15.20;;;10.02;;
23676;SDS011;31493;49.058;12.190;2022-11-15T05:06:46;12.55;;;9.55;;
23676;SDS011;31493;49.058;12.190;2022-11-15T05:09:14;15.90;;;10.15;;
23676;SDS011;31493;49.058;12.190;2022-11-15T05:11:41;14.25;;;9.70;;
23676;SDS011;31493;49.058;12.190;2022-11-15T05:14:10;14.63;;;9.95;;
23676;SDS011;31493;49.058;12.190;2022-11-15T05:16:37;14.88;;;9.02;;
23676;SDS011;31493;49.058;12.190;2022-11-15T05:19:04;14.18;;;10.13;;
23676;SDS011;31493;49.058;12.190;2022-11-15T05:21:32;14.43;;;9.48;;
23676;SDS011;31493;49.058;12.190;2022-11-15T05:24:00;15.77;;;10.10;;
23676;SDS011;31493;49.058;12.190;2022-11-15T05:26:27;12.80;;;8.95;;
23676;SDS011;31493;49.058;12.190;2022-11-15T05:28:55;12.85;;;8.77;;
23676;SDS011;31493;49.058;12.190;2022-11-15T05:31:24;11.37;;;8.23;;
23676;SDS011;31493;49.058;12.190;2022-11-15T05:33:52;18.30;;;9.23;;
23676;SDS011;31493;49.058;12.190;2022-11-15T05:38:53;13.02;;;8.30;;
23676;SDS011;31493;49.058;12.190;2022-11-15T05:41:20;10.98;;;7.80;;
23676;SDS011;31493;49.058;12.190;2022-11-15T05:43:53;11.98;;;7.32;;
23676;SDS011;31493;49.058;12.190;2022-11-15T05:46:20;11.05;;;7.60;;
23676;SDS011;31493;49.058;12.190;2022-11-15T05:48:49;11.75;;;8.18;;
23676;SDS011;31493;49.058;12.190;2022-11-15T05:51:20;12.65;;;9.52;;
23676;SDS011;31493;49.058;12.190;2022-11-15T05:53:49;13.23;;;8.70;;
23676;SDS011;31493;49.058;12.190;2022-11-15T05:56:18;11.60;;;8.63;;
23676;SDS011;31493;49.058;12.190;2022-11-15T05:58:45;11.77;;;7.68;;
23676;SDS011;31493;49.058;12.190;2022-11-15T06:01:12;11.45;;;8.77;;
23676;SDS011;31493;49.058;12.190;2022-11-15T06:03:40;13.18;;;8.57;;
23676;SDS011;31493;49.058;12.190;2022-11-15T06:06:08;15.20;;;9.75;;
23676;SDS011;31493;49.058;12.190;2022-11-15T06:08:35;17.10;;;10.23;;
23676;SDS011;31493;49.058;12.190;2022-11-15T06:11:03;15.95;;;9.70;;
23676;SDS011;31493;49.058;12.190;2022-11-15T06:13:30;15.05;;;10.35;;
23676;SDS011;31493;49.058;12.190;2022-11-15T06:15:58;17.63;;;10.98;;
23676;SDS011;31493;49.058;12.190;2022-11-15T06:18:25;11.35;;;8.00;;
23676;SDS011;31493;49.058;12.190;2022-11-15T06:20:53;15.43;;;10.65;;
23676;SDS011;31493;49.058;12.190;2022-11-15T06:23:21;11.05;;;7.40;;
23676;SDS011;31493;49.058;12.190;2022-11-15T06:25:48;18.52;;;11.50;;
23676;SDS011;31493;49.058;12.190;2022-11-15T06:28:15;19.95;;;12.45;;
23676;SDS011;31493;49.058;12.190;2022-11-15T06:30:42;18.55;;;12.65;;
23676;SDS011;31493;49.058;12.190;2022-11-15T06:33:09;20.83;;;13.18;;
23676;SDS011;31493;49.058;12.190;2022-11-15T06:35:36;21.58;;;13.57;;
23676;SDS011;31493;49.058;12.190;2022-11-15T06:38:04;19.23;;;12.70;;
23676;SDS011;31493;49.058;12.190;2022-11-15T06:40:34;19.30;;;12.60;;
23676;SDS011;31493;49.058;12.190;2022-11-15T06:43:02;21.25;;;13.38;;
23676;SDS011;31493;49.058;12.190;2022-11-15T06:45:29;20.02;;;14.00;;
23676;SDS011;31493;49.058;12.190;2022-11-15T06:47:57;23.67;;;15.05;;
23676;SDS011;31493;49.058;12.190;2022-11-15T06:50:24;20.95;;;14.73;;
23676;SDS011;31493;49.058;12.190;2022-11-15T06:52:51;23.83;;;16.45;;
23676;SDS011;31493;49.058;12.190;2022-11-15T06:55:18;25.35;;;17.23;;
23676;SDS011;31493;49.058;12.190;2022-11-15T06:57:47;27.58;;;17.50;;
23676;SDS011;31493;49.058;12.190;2022-11-15T07:00:15;25.35;;;16.67;;
23676;SDS011;31493;49.058;12.190;2022-11-15T07:02:43;27.90;;;18.90;;
23676;SDS011;31493;49.058;12.190;2022-11-15T07:05:10;26.40;;;17.80;;
23676;SDS011;31493;49.058;12.190;2022-11-15T07:07:37;27.00;;;18.80;;
23676;SDS011;31493;49.058;12.190;2022-11-15T07:10:05;28.17;;;18.13;;
23676;SDS011;31493;49.058;12.190;2022-11-15T07:12:33;28.00;;;18.58;;
23676;SDS011;31493;49.058;12.190;2022-11-15T07:15:02;27.00;;;17.40;;
23676;SDS011;31493;49.058;12.190;2022-11-15T07:17:29;24.13;;;17.50;;
23676;SDS011;31493;49.058;12.190;2022-11-15T07:19:56;26.10;;;17.83;;
23676;SDS011;31493;49.058;12.190;2022-11-15T07:22:23;23.25;;;16.42;;
23676;SDS011;31493;49.058;12.190;2022-11-15T07:24:50;22.10;;;16.23;;
23676;SDS011;31493;49.058;12.190;2022-11-15T07:27:17;21.27;;;14.77;;
23676;SDS011;31493;49.058;12.190;2022-11-15T07:29:44;21.17;;;15.07;;
23676;SDS011;31493;49.058;12.190;2022-11-15T07:32:12;21.35;;;14.65;;
23676;SDS011;31493;49.058;12.190;2022-11-15T07:34:39;22.65;;;15.00;;
23676;SDS011;31493;49.058;12.190;2022-11-15T07:37:06;21.55;;;14.50;;
23676;SDS011;31493;49.058;12.190;2022-11-15T07:39:33;20.13;;;14.02;;
23676;SDS011;31493;49.058;12.190;2022-11-15T07:42:00;12.77;;;9.30;;
23676;SDS011;31493;49.058;12.190;2022-11-15T07:44:45;13.82;;;9.82;;
23676;SDS011;31493;49.058;12.190;2022-11-15T07:47:13;15.70;;;10.77;;
23676;SDS011;31493;49.058;12.190;2022-11-15T07:49:40;17.45;;;11.35;;
23676;SDS011;31493;49.058;12.190;2022-11-15T07:52:07;19.38;;;11.95;;
23676;SDS011;31493;49.058;12.190;2022-11-15T07:54:34;19.45;;;13.65;;
23676;SDS011;31493;49.058;12.190;2022-11-15T07:57:01;20.83;;;14.02;;
23676;SDS011;31493;49.058;12.190;2022-11-15T07:59:29;23.33;;;14.73;;
23676;SDS011;31493;49.058;12.190;2022-11-15T08:01:56;23.13;;;15.80;;
23676;SDS011;31493;49.058;12.190;2022-11-15T08:04:24;24.10;;;15.63;;
23676;SDS011;31493;49.058;12.190;2022-11-15T08:06:51;20.10;;;14.07;;
23676;SDS011;31493;49.058;12.190;2022-11-15T08:09:18;22.77;;;14.85;;
23676;SDS011;31493;49.058;12.190;2022-11-15T08:11:45;23.55;;;15.63;;
23676;SDS011;31493;49.058;12.190;2022-11-15T08:14:12;25.65;;;15.52;;
23676;SDS011;31493;49.058;12.190;2022-11-15T08:16:39;20.20;;;13.52;;
23676;SDS011;31493;49.058;12.190;2022-11-15T08:19:06;16.40;;;11.13;;
23676;SDS011;31493;49.058;12.190;2022-11-15T08:21:34;18.63;;;11.48;;
23676;SDS011;31493;49.058;12.190;2022-11-15T08:24:02;17.80;;;12.52;;
23676;SDS011;31493;49.058;12.190;2022-11-15T08:26:30;17.73;;;13.63;;
23676;SDS011;31493;49.058;12.190;2022-11-15T08:28:57;21.60;;;15.25;;
23676;SDS011;31493;49.058;12.190;2022-11-15T08:31:24;23.40;;;15.32;;
23676;SDS011;31493;49.058;12.190;2022-11-15T08:33:51;22.08;;;15.27;;
23676;SDS011;31493;49.058;12.190;2022-11-15T08:36:18;23.95;;;16.13;;
23676;SDS011;31493;49.058;12.190;2022-11-15T08:38:46;23.08;;;15.77;;
23676;SDS011;31493;49.058;12.190;2022-11-15T08:41:13;21.90;;;15.43;;
23676;SDS011;31493;49.058;12.190;2022-11-15T08:43:44;21.63;;;14.50;;
23676;SDS011;31493;49.058;12.190;2022-11-15T08:46:12;22.17;;;15.52;;
23676;SDS011;31493;49.058;12.190;2022-11-15T08:48:40;22.13;;;14.48;;
23676;SDS011;31493;49.058;12.190;2022-11-15T08:51:07;21.50;;;14.98;;
23676;SDS011;31493;49.058;12.190;2022-11-15T08:53:34;20.42;;;14.15;;
23676;SDS011;31493;49.058;12.190;2022-11-15T08:56:02;20.88;;;14.60;;
23676;SDS011;31493;49.058;12.190;2022-11-15T08:58:33;21.35;;;14.27;;
23676;SDS011;31493;49.058;12.190;2022-11-15T09:01:00;21.52;;;14.18;;
23676;SDS011;31493;49.058;12.190;2022-11-15T09:03:27;18.38;;;13.15;;
23676;SDS011;31493;49.058;12.190;2022-11-15T09:05:54;18.90;;;13.82;;
23676;SDS011;31493;49.058;12.190;2022-11-15T09:08:22;18.85;;;12.25;;
23676;SDS011;31493;49.058;12.190;2022-11-15T09:10:49;17.08;;;12.75;;
23676;SDS011;31493;49.058;12.190;2022-11-15T09:13:18;15.65;;;11.80;;
23676;SDS011;31493;49.058;12.190;2022-11-15T09:15:45;14.18;;;11.02;;
23676;SDS011;31493;49.058;12.190;2022-11-15T09:18:12;14.77;;;10.48;;
23676;SDS011;31493;49.058;12.190;2022-11-15T09:20:39;15.55;;;10.73;;
23676;SDS011;31493;49.058;12.190;2022-11-15T09:23:06;18.60;;;11.38;;
23676;SDS011;31493;49.058;12.190;2022-11-15T09:25:33;18.00;;;12.00;;
23676;SDS011;31493;49.058;12.190;2022-11-15T09:28:00;18.45;;;11.98;;
23676;SDS011;31493;49.058;12.190;2022-11-15T09:30:28;16.10;;;11.45;;
23676;SDS011;31493;49.058;12.190;2022-11-15T09:32:55;11.30;;;8.63;;
23676;SDS011;31493;49.058;12.190;2022-11-15T09:35:22;10.85;;;8.23;;
23676;SDS011;31493;49.058;12.190;2022-11-15T09:37:49;12.20;;;8.38;;
23676;SDS011;31493;49.058;12.190;2022-11-15T09:40:16;10.73;;;8.73;;
23676;SDS011;31493;49.058;12.190;2022-11-15T09:42:49;11.40;;;8.75;;
23676;SDS011;31493;49.058;12.190;2022-11-15T09:45:30;12.52;;;9.95;;
23676;SDS011;31493;49.058;12.190;2022-11-15T09:50:57;15.25;;;10.65;;
23676;SDS011;31493;49.058;12.190;2022-11-15T09:53:29;15.18;;;10.00;;
23676;SDS011;31493;49.058;12.190;2022-11-15T09:56:05;12.43;;;9.23;;
23676;SDS011;31493;49.058;12.190;2022-11-15T09:58:43;12.30;;;9.50;;
23676;SDS011;31493;49.058;12.190;2022-11-15T10:01:33;18.23;;;10.50;;
23676;SDS011;31493;49.058;12.190;2022-11-15T10:04:08;15.10;;;10.35;;
23676;SDS011;31493;49.058;12.190;2022-11-15T10:06:36;16.88;;;11.20;;
23676;SDS011;31493;49.058;12.190;2022-11-15T10:09:11;14.50;;;10.20;;
23676;SDS011;31493;49.058;12.190;2022-11-15T10:11:42;14.45;;;10.35;;
23676;SDS011;31493;49.058;12.190;2022-11-15T10:14:10;19.35;;;10.27;;
23676;SDS011;31493;49.058;12.190;2022-11-15T10:19:49;15.55;;;10.23;;
23676;SDS011;31493;49.058;12.190;2022-11-15T10:22:26;14.35;;;9.40;;
23676;SDS011;31493;49.058;12.190;2022-11-15T10:25:01;13.38;;;9.85;;
23676;SDS011;31493;49.058;12.190;2022-11-15T10:27:39;12.00;;;8.80;;
23676;SDS011;31493;49.058;12.190;2022-11-15T10:30:10;16.63;;;9.63;;
23676;SDS011;31493;49.058;12.190;2022-11-15T10:32:39;12.90;;;8.93;;
23676;SDS011;31493;49.058;12.190;2022-11-15T10:35:20;12.70;;;9.05;;
23676;SDS011;31493;49.058;12.190;2022-11-15T10:37:51;11.02;;;8.40;;
23676;SDS011;31493;49.058;12.190;2022-11-15T10:40:19;12.93;;;8.40;;
23676;SDS011;31493;49.058;12.190;2022-11-15T10:42:48;12.40;;;8.48;;
23676;SDS011;31493;49.058;12.190;2022-11-15T10:45:25;13.20;;;8.82;;
23676;SDS011;31493;49.058;12.190;2022-11-15T10:47:57;11.75;;;8.70;;
23676;SDS011;31493;49.058;12.190;2022-11-15T10:50:48;14.00;;;8.15;;
23676;SDS011;31493;49.058;12.190;2022-11-15T10:53:19;12.40;;;8.02;;
23676;SDS011;31493;49.058;12.190;2022-11-15T10:55:51;11.88;;;7.43;;
23676;SDS011;31493;49.058;12.190;2022-11-15T10:58:21;10.20;;;7.78;;
23676;SDS011;31493;49.058;12.190;2022-11-15T11:00:57;13.10;;;7.53;;
23676;SDS011;31493;49.058;12.190;2022-11-15T11:03:37;10.52;;;7.05;;
23676;SDS011;31493;49.058;12.190;2022-11-15T11:06:08;10.10;;;6.95;;
23676;SDS011;31493;49.058;12.190;2022-11-15T11:08:37;9.60;;;6.75;;
23676;SDS011;31493;49.058;12.190;2022-11-15T11:11:05;10.25;;;6.90;;
23676;SDS011;31493;49.058;12.190;2022-11-15T11:13:35;8.05;;;6.18;;
23676;SDS011;31493;49.058;12.190;2022-11-15T11:16:10;9.80;;;6.22;;
23676;SDS011;31493;49.058;12.190;2022-11-15T11:18:47;8.27;;;5.78;;
23676;SDS011;31493;49.058;12.190;2022-11-15T11:21:21;9.35;;;6.15;;
23676;SDS011;31493;49.058;12.190;2022-11-15T11:23:58;10.65;;;5.70;;
23676;SDS011;31493;49.058;12.190;2022-11-15T11:26:35;9.38;;;5.70;;
23676;SDS011;31493;49.058;12.190;2022-11-15T11:29:12;7.78;;;5.05;;
23676;SDS011;31493;49.058;12.190;2022-11-15T11:31:54;7.30;;;5.40;;
23676;SDS011;31493;49.058;12.190;2022-11-15T11:34:29;9.18;;;5.75;;
23676;SDS011;31493;49.058;12.190;2022-11-15T11:37:10;7.03;;;4.88;;
23676;SDS011;31493;49.058;12.190;2022-11-15T11:39:46;8.82;;;5.32;;
23676;SDS011;31493;49.058;12.190;2022-11-15T11:42:25;11.57;;;7.55;;
23676;SDS011;31493;49.058;12.190;2022-11-15T11:44:59;12.40;;;8.27;;
23676;SDS011;31493;49.058;12.190;2022-11-15T11:47:38;9.75;;;5.90;;
23676;SDS011;31493;49.058;12.190;2022-11-15T11:50:10;6.95;;;4.95;;
23676;SDS011;31493;49.058;12.190;2022-11-15T11:52:43;5.03;;;3.95;;
23676;SDS011;31493;49.058;12.190;2022-11-15T11:55:21;6.07;;;4.10;;
23676;SDS011;31493;49.058;12.190;2022-11-15T11:57:54;7.20;;;4.60;;
23676;SDS011;31493;49.058;12.190;2022-11-15T12:00:29;8.55;;;5.05;;
23676;SDS011;31493;49.058;12.190;2022-11-15T12:03:03;8.68;;;6.47;;
23676;SDS011;31493;49.058;12.190;2022-11-15T12:05:35;9.55;;;6.03;;
23676;SDS011;31493;49.058;12.190;2022-11-15T12:08:14;8.88;;;5.13;;
23676;SDS011;31493;49.058;12.190;2022-11-15T12:10:51;8.93;;;5.90;;
23676;SDS011;31493;49.058;12.190;2022-11-15T12:13:26;11.80;;;9.00;;
23676;SDS011;31493;49.058;12.190;2022-11-15T12:15:59;13.30;;;9.00;;
23676;SDS011;31493;49.058;12.190;2022-11-15T12:18:32;11.93;;;9.18;;
23676;SDS011;31493;49.058;12.190;2022-11-15T12:21:00;12.07;;;9.73;;
23676;SDS011;31493;49.058;12.190;2022-11-15T12:23:39;13.27;;;9.52;;
23676;SDS011;31493;49.058;12.190;2022-11-15T12:26:10;11.82;;;8.80;;
23676;SDS011;31493;49.058;12.190;2022-11-15T12:28:44;14.50;;;9.38;;
23676;SDS011;31493;49.058;12.190;2022-11-15T12:31:15;11.95;;;8.70;;
23676;SDS011;31493;49.058;12.190;2022-11-15T12:33:46;11.57;;;8.60;;
23676;SDS011;31493;49.058;12.190;2022-11-15T12:36:29;11.43;;;8.65;;
23676;SDS011;31493;49.058;12.190;2022-11-15T12:39:02;10.35;;;7.45;;
23676;SDS011;31493;49.058;12.190;2022-11-15T12:41:31;10.27;;;7.40;;
23676;SDS011;31493;49.058;12.190;2022-11-15T12:43:59;11.40;;;7.43;;
23676;SDS011;31493;49.058;12.190;2022-11-15T12:49:42;10.35;;;7.07;;
23676;SDS011;31493;49.058;12.190;2022-11-15T12:52:10;10.90;;;7.03;;
23676;SDS011;31493;49.058;12.190;2022-11-15T12:54:51;9.90;;;6.88;;
23676;SDS011;31493;49.058;12.190;2022-11-15T12:57:29;13.55;;;8.60;;
23676;SDS011;31493;49.058;12.190;2022-11-15T13:00:01;11.50;;;8.15;;
23676;SDS011;31493;49.058;12.190;2022-11-15T13:02:32;11.57;;;7.80;;
23676;SDS011;31493;49.058;12.190;2022-11-15T13:08:35;12.55;;;8.15;;
23676;SDS011;31493;49.058;12.190;2022-11-15T13:14:12;5.40;;;4.20;;
23676;SDS011;31493;49.058;12.190;2022-11-15T13:17:12;8.43;;;4.40;;
23676;SDS011;31493;49.058;12.190;2022-11-15T13:19:47;4.55;;;3.03;;
23676;SDS011;31493;49.058;12.190;2022-11-15T13:22:18;4.75;;;3.00;;
23676;SDS011;31493;49.058;12.190;2022-11-15T13:25:03;4.15;;;2.60;;
23676;SDS011;31493;49.058;12.190;2022-11-15T13:27:41;4.47;;;2.83;;
23676;SDS011;31493;49.058;12.190;2022-11-15T13:30:13;4.75;;;3.00;;
23676;SDS011;31493;49.058;12.190;2022-11-15T13:32:46;4.20;;;2.88;;
23676;SDS011;31493;49.058;12.190;2022-11-15T13:35:18;4.87;;;2.87;;
23676;SDS011;31493;49.058;12.190;2022-11-15T13:37:47;5.03;;;2.70;;
23676;SDS011;31493;49.058;12.190;2022-11-15T13:40:18;5.60;;;3.22;;
23676;SDS011;31493;49.058;12.190;2022-11-15T13:42:48;7.75;;;3.50;;
23676;SDS011;31493;49.058;12.190;2022-11-15T13:45:17;5.93;;;4.68;;
23676;SDS011;31493;49.058;12.190;2022-11-15T13:47:47;9.50;;;6.00;;
23676;SDS011;31493;49.058;12.190;2022-11-15T13:50:18;10.73;;;6.70;;
23676;SDS011;31493;49.058;12.190;2022-11-15T13:52:48;12.40;;;7.57;;
23676;SDS011;31493;49.058;12.190;2022-11-15T13:55:16;14.43;;;8.10;;
23676;SDS011;31493;49.058;12.190;2022-11-15T13:57:46;13.60;;;8.52;;
23676;SDS011;31493;49.058;12.190;2022-11-15T14:00:29;12.43;;;8.07;;
23676;SDS011;31493;49.058;12.190;2022-11-15T14:03:05;11.93;;;7.35;;
23676;SDS011;31493;49.058;12.190;2022-11-15T14:05:34;9.18;;;7.55;;
23676;SDS011;31493;49.058;12.190;2022-11-15T14:08:02;10.68;;;7.40;;
23676;SDS011;31493;49.058;12.190;2022-11-15T14:10:39;11.13;;;7.07;;
23676;SDS011;31493;49.058;12.190;2022-11-15T14:13:10;12.63;;;8.27;;
23676;SDS011;31493;49.058;12.190;2022-11-15T14:15:54;10.95;;;7.78;;
23676;SDS011;31493;49.058;12.190;2022-11-15T14:18:40;12.02;;;9.48;;
23676;SDS011;31493;49.058;12.190;2022-11-15T14:21:10;13.52;;;10.00;;
23676;SDS011;31493;49.058;12.190;2022-11-15T14:23:37;16.90;;;10.40;;
23676;SDS011;31493;49.058;12.190;2022-11-15T14:26:04;15.55;;;9.80;;
23676;SDS011;31493;49.058;12.190;2022-11-15T14:28:33;9.13;;;6.78;;
23676;SDS011;31493;49.058;12.190;2022-11-15T14:31:09;12.98;;;8.48;;
23676;SDS011;31493;49.058;12.190;2022-11-15T14:33:38;8.35;;;5.90;;
23676;SDS011;31493;49.058;12.190;2022-11-15T14:36:10;9.57;;;7.55;;
23676;SDS011;31493;49.058;12.190;2022-11-15T14:38:38;14.00;;;8.75;;
23676;SDS011;31493;49.058;12.190;2022-11-15T14:41:08;12.95;;;8.32;;
23676;SDS011;31493;49.058;12.190;2022-11-15T14:43:43;11.40;;;7.18;;
23676;SDS011;31493;49.058;12.190;2022-11-15T14:46:13;6.07;;;3.93;;
23676;SDS011;31493;49.058;12.190;2022-11-15T14:48:40;4.18;;;3.00;;
23676;SDS011;31493;49.058;12.190;2022-11-15T14:51:11;5.85;;;3.45;;
23676;SDS011;31493;49.058;12.190;2022-11-15T14:53:39;6.22;;;3.15;;
23676;SDS011;31493;49.058;12.190;2022-11-15T14:56:07;6.03;;;2.95;;
23676;SDS011;31493;49.058;12.190;2022-11-15T14:58:34;6.38;;;3.47;;
23676;SDS011;31493;49.058;12.190;2022-11-15T15:01:02;6.15;;;2.92;;